Time;durP1;ratioP1;P1;durP2;ratioP2;P2;SDS_P1;SDS_P2;PMS_P1;PMS_P2;Temp;Humidity;BMP_temperature;BMP_pressure;BME280_temperature;BME280_humidity;BME280_pressure;Samples;Min_cycle;Max_cycle;Signal;HPM_P1;HPM_P2
2020/12/20 00:01:03;;;;;;;8.98;6.22;;;9.30;99.90;;;;;;5072409;28;20017;-89
2020/12/20 00:03:30;;;;;;;12.32;6.63;;;9.30;99.90;;;;;;5072456;28;20390;-88
2020/12/20 00:05:55;;;;;;;10.13;5.75;;;9.30;99.90;;;;;;5074263;28;20547;-90
2020/12/20 00:08:21;;;;;;;9.95;6.07;;;9.20;99.90;;;;;;5076154;28;20107;-88
2020/12/20 00:10:47;;;;;;;9.30;6.60;;;9.30;99.90;;;;;;5076948;28;20028;-90
2020/12/20 00:13:17;;;;;;;10.70;6.03;;;9.30;99.90;;;;;;5075765;28;20048;-89
2020/12/20 00:15:43;;;;;;;9.20;5.90;;;9.30;99.90;;;;;;5075868;28;20029;-89
2020/12/20 00:18:09;;;;;;;12.18;6.20;;;9.30;99.90;;;;;;5076736;28;20090;-89
2020/12/20 00:20:35;;;;;;;11.73;6.63;;;9.30;99.90;;;;;;5076729;28;20417;-90
2020/12/20 00:23:00;;;;;;;12.20;6.60;;;9.20;99.90;;;;;;5075684;28;20012;-89
2020/12/20 00:25:26;;;;;;;9.10;6.07;;;9.30;99.90;;;;;;5075093;28;20389;-88
2020/12/20 00:27:51;;;;;;;9.18;6.53;;;9.20;99.90;;;;;;5075656;28;20020;-89
2020/12/20 00:30:17;;;;;;;10.27;6.18;;;9.20;99.90;;;;;;5075654;28;20027;-90
2020/12/20 00:32:42;;;;;;;8.73;5.63;;;9.20;99.90;;;;;;5075473;28;20048;-91
2020/12/20 00:35:08;;;;;;;13.25;6.28;;;9.30;99.90;;;;;;5075355;28;20401;-89
2020/12/20 00:37:34;;;;;;;8.75;6.03;;;9.30;99.90;;;;;;5074987;28;20017;-88
2020/12/20 00:39:59;;;;;;;11.25;5.97;;;9.30;99.90;;;;;;5076020;28;20028;-88
2020/12/20 00:42:25;;;;;;;8.55;5.70;;;9.30;99.90;;;;;;5076132;28;20112;-89
2020/12/20 00:44:51;;;;;;;9.05;5.72;;;9.30;99.90;;;;;;5074660;28;20039;-88
2020/12/20 00:47:16;;;;;;;10.60;6.15;;;9.30;99.90;;;;;;5074790;28;20024;-89
2020/12/20 00:49:42;;;;;;;14.55;5.90;;;9.30;99.90;;;;;;5075606;28;20065;-88
2020/12/20 00:52:08;;;;;;;7.20;4.80;;;9.30;99.90;;;;;;5074982;28;20028;-88
2020/12/20 00:54:34;;;;;;;10.82;6.07;;;9.30;99.90;;;;;;5075788;28;20076;-88
2020/12/20 00:57:00;;;;;;;9.23;5.68;;;9.20;99.90;;;;;;5075885;28;20110;-88
2020/12/20 00:59:26;;;;;;;12.45;5.60;;;9.30;99.90;;;;;;5075405;28;20064;-87
2020/12/20 01:01:51;;;;;;;11.07;6.68;;;9.30;99.90;;;;;;5074681;28;20107;-88
2020/12/20 01:04:17;;;;;;;10.50;5.97;;;9.30;99.90;;;;;;5074090;28;20036;-87
2020/12/20 01:06:43;;;;;;;8.88;5.60;;;9.20;99.90;;;;;;5075652;28;20016;-88
2020/12/20 01:09:09;;;;;;;8.18;5.00;;;9.20;99.90;;;;;;5074396;28;20394;-87
2020/12/20 01:11:35;;;;;;;8.93;5.38;;;9.20;99.90;;;;;;5075758;28;20446;-87
2020/12/20 01:14:03;;;;;;;9.38;5.82;;;9.20;99.90;;;;;;5073922;28;20044;-87
2020/12/20 01:16:29;;;;;;;10.27;6.55;;;9.20;99.90;;;;;;5090638;28;20462;-87
2020/12/20 01:18:58;;;;;;;7.93;5.22;;;9.20;99.90;;;;;;5074041;28;20032;-88
2020/12/20 01:21:25;;;;;;;10.48;5.53;;;9.20;99.90;;;;;;5074101;28;20013;-85
2020/12/20 01:23:51;;;;;;;14.02;6.10;;;9.20;99.90;;;;;;5073928;28;20033;-87
2020/12/20 01:26:16;;;;;;;9.95;5.15;;;9.20;99.90;;;;;;5075199;28;20440;-86
2020/12/20 01:28:42;;;;;;;9.88;5.30;;;9.20;99.90;;;;;;5073639;28;20021;-87
2020/12/20 01:31:11;;;;;;;10.20;5.43;;;9.20;99.90;;;;;;5073737;28;20386;-86
2020/12/20 01:33:38;;;;;;;8.82;4.55;;;9.20;99.90;;;;;;5073827;28;20028;-88
2020/12/20 01:36:08;;;;;;;11.77;5.53;;;9.20;99.90;;;;;;5073486;28;20025;-87
2020/12/20 01:38:34;;;;;;;12.55;5.90;;;9.20;99.90;;;;;;5074106;28;20551;-87
2020/12/20 01:41:00;;;;;;;13.68;5.50;;;9.20;99.90;;;;;;5073903;28;20052;-86
2020/12/20 01:43:38;;;;;;;15.88;6.55;;;9.20;99.90;;;;;;5073842;28;20063;-87
2020/12/20 01:46:04;;;;;;;12.75;5.80;;;9.20;99.90;;;;;;5073345;28;20031;-88
2020/12/20 01:48:29;;;;;;;10.07;5.53;;;9.20;99.90;;;;;;5073499;28;20496;-89
2020/12/20 01:50:55;;;;;;;9.63;5.25;;;9.20;99.90;;;;;;5075013;28;20031;-88
2020/12/20 01:53:21;;;;;;;11.77;5.30;;;9.30;99.90;;;;;;5074101;28;20029;-88
2020/12/20 01:55:48;;;;;;;11.52;5.00;;;9.30;99.90;;;;;;5074768;28;20016;-88
2020/12/20 01:58:14;;;;;;;10.05;5.50;;;9.30;99.90;;;;;;5073439;28;20068;-89
2020/12/20 02:00:39;;;;;;;9.40;4.85;;;9.30;99.90;;;;;;5073693;28;20028;-88
2020/12/20 02:03:05;;;;;;;9.30;4.30;;;9.40;99.90;;;;;;5074710;28;20028;-90
2020/12/20 02:05:31;;;;;;;9.65;4.47;;;9.30;99.90;;;;;;5073385;28;20039;-89
2020/12/20 02:07:56;;;;;;;7.93;3.92;;;9.30;99.90;;;;;;5074848;28;20025;-89
2020/12/20 02:10:22;;;;;;;10.93;4.90;;;9.30;99.90;;;;;;5073501;28;20040;-89
2020/12/20 02:12:48;;;;;;;7.80;4.60;;;9.30;99.90;;;;;;5073234;28;20067;-89
2020/12/20 02:15:13;;;;;;;11.98;4.55;;;9.30;99.90;;;;;;5073310;28;20025;-88
2020/12/20 02:17:39;;;;;;;9.00;5.28;;;9.30;99.90;;;;;;5107243;28;20553;-88
2020/12/20 02:20:05;;;;;;;9.57;5.90;;;9.30;99.90;;;;;;5090293;28;20458;-88
2020/12/20 02:22:32;;;;;;;12.02;5.47;;;9.30;99.90;;;;;;5074675;28;20458;-89
2020/12/20 02:24:59;;;;;;;9.27;5.32;;;9.20;99.90;;;;;;5073043;28;20459;-87
2020/12/20 02:27:24;;;;;;;8.07;4.53;;;9.20;99.90;;;;;;5072660;28;20457;-88
2020/12/20 02:29:50;;;;;;;11.55;5.20;;;9.20;99.90;;;;;;5072737;28;20025;-89
2020/12/20 02:32:16;;;;;;;9.50;5.32;;;9.20;99.90;;;;;;5074342;28;20447;-89
2020/12/20 02:34:41;;;;;;;8.55;4.43;;;9.10;99.90;;;;;;5073255;28;20032;-88
2020/12/20 02:37:07;;;;;;;12.77;5.55;;;9.10;99.90;;;;;;5107365;28;20454;-89
2020/12/20 02:39:32;;;;;;;8.80;5.40;;;9.20;99.90;;;;;;5072931;28;20055;-88
2020/12/20 02:41:58;;;;;;;7.93;4.82;;;9.10;99.90;;;;;;5106777;28;20024;-86
2020/12/20 02:44:23;;;;;;;12.10;5.00;;;9.00;99.90;;;;;;5072085;28;20032;-89
2020/12/20 02:46:49;;;;;;;13.30;6.18;;;9.00;99.90;;;;;;5072482;28;20016;-87
2020/12/20 02:49:15;;;;;;;12.57;5.50;;;9.00;99.90;;;;;;5073476;28;20035;-87
2020/12/20 02:51:41;;;;;;;10.23;5.43;;;9.00;99.90;;;;;;5073656;28;20020;-88
2020/12/20 02:54:06;;;;;;;9.80;5.95;;;9.00;99.90;;;;;;5072552;28;20074;-87
2020/12/20 02:56:32;;;;;;;8.23;4.72;;;9.00;99.90;;;;;;5106478;28;20020;-88
2020/12/20 02:58:58;;;;;;;10.85;5.78;;;9.10;99.90;;;;;;5073876;28;20033;-87
2020/12/20 03:01:23;;;;;;;9.77;4.80;;;9.00;99.90;;;;;;5073806;28;20481;-88
2020/12/20 03:03:50;;;;;;;10.90;4.82;;;9.00;99.90;;;;;;5072118;28;20025;-88
2020/12/20 03:06:16;;;;;;;12.88;6.13;;;9.00;99.90;;;;;;5072293;28;20024;-90
2020/12/20 03:08:42;;;;;;;13.82;5.32;;;9.10;99.90;;;;;;5072716;28;20024;-88
2020/12/20 03:11:07;;;;;;;14.98;5.65;;;9.10;99.90;;;;;;5073756;28;20032;-88
2020/12/20 03:13:33;;;;;;;12.00;5.55;;;9.10;99.90;;;;;;5072263;28;20060;-88
2020/12/20 03:15:58;;;;;;;11.60;5.07;;;9.10;99.90;;;;;;5071903;28;20518;-88
2020/12/20 03:18:24;;;;;;;8.88;4.40;;;9.20;99.90;;;;;;5071933;28;20029;-90
2020/12/20 03:20:50;;;;;;;13.88;5.43;;;9.20;99.90;;;;;;5072130;28;20028;-88
2020/12/20 03:23:15;;;;;;;10.73;4.80;;;9.20;99.90;;;;;;5073482;28;20064;-87
2020/12/20 03:25:41;;;;;;;8.90;4.70;;;9.20;99.90;;;;;;5072215;28;20024;-88
2020/12/20 03:28:08;;;;;;;14.80;4.90;;;9.20;99.90;;;;;;5106041;28;20036;-88
2020/12/20 03:30:34;;;;;;;9.25;4.70;;;9.30;99.90;;;;;;5073435;28;20032;-88
2020/12/20 03:32:59;;;;;;;8.38;4.43;;;9.20;99.90;;;;;;5072134;28;20029;-89
2020/12/20 03:35:25;;;;;;;8.57;5.00;;;9.20;99.90;;;;;;5072172;28;20453;-89
2020/12/20 03:37:53;;;;;;;9.80;5.30;;;9.20;99.90;;;;;;5073419;28;20394;-89
2020/12/20 03:40:20;;;;;;;9.30;4.55;;;9.20;99.90;;;;;;5073106;28;20021;-88
2020/12/20 03:42:46;;;;;;;13.02;4.57;;;9.20;99.90;;;;;;5110064;28;20067;-90
2020/12/20 03:45:13;;;;;;;10.15;4.75;;;9.20;99.90;;;;;;5075873;28;20048;-89
2020/12/20 03:47:39;;;;;;;8.80;4.57;;;9.20;99.90;;;;;;5075818;28;20020;-88
2020/12/20 03:50:05;;;;;;;9.80;4.65;;;9.20;99.90;;;;;;5075702;28;20354;-88
2020/12/20 03:52:30;;;;;;;9.90;4.13;;;9.20;99.90;;;;;;5109617;28;20119;-88
2020/12/20 03:54:56;;;;;;;8.98;4.55;;;9.20;99.90;;;;;;5109791;28;20028;-88
2020/12/20 03:57:21;;;;;;;10.18;5.03;;;9.20;99.90;;;;;;5075833;28;20027;-88
2020/12/20 03:59:47;;;;;;;10.35;4.75;;;9.20;99.90;;;;;;5075845;28;20060;-89
2020/12/20 04:02:12;;;;;;;8.25;4.65;;;9.20;99.90;;;;;;5075635;28;20013;-87
2020/12/20 04:04:38;;;;;;;8.93;4.60;;;9.20;99.90;;;;;;5109265;28;20371;-89
2020/12/20 04:07:03;;;;;;;7.75;4.65;;;9.20;99.90;;;;;;5109301;28;20458;-90
2020/12/20 04:09:29;;;;;;;10.45;4.57;;;9.20;99.90;;;;;;5075680;28;20047;-89
2020/12/20 04:11:56;;;;;;;8.02;4.38;;;9.20;99.90;;;;;;5076895;28;20032;-90
2020/12/20 04:14:22;;;;;;;12.43;4.82;;;9.20;99.90;;;;;;5076558;28;20043;-89
2020/12/20 04:16:47;;;;;;;9.50;4.80;;;9.20;99.90;;;;;;5075864;28;20029;-89
2020/12/20 04:19:13;;;;;;;9.85;4.40;;;9.20;99.90;;;;;;5075923;28;20064;-89
2020/12/20 04:21:38;;;;;;;10.30;5.03;;;9.20;99.90;;;;;;5075880;28;20009;-89
2020/12/20 04:24:04;;;;;;;9.27;4.13;;;9.20;99.90;;;;;;5075581;28;20123;-90
2020/12/20 04:26:30;;;;;;;9.05;4.50;;;9.20;99.90;;;;;;5075724;28;20020;-88
2020/12/20 04:28:55;;;;;;;9.38;4.32;;;9.20;99.90;;;;;;5092589;28;20028;-87
2020/12/20 04:31:25;;;;;;;10.55;4.45;;;9.20;99.90;;;;;;5076935;28;20017;-88
2020/12/20 04:33:51;;;;;;;9.15;4.25;;;9.20;99.90;;;;;;5080639;28;20017;-90
2020/12/20 04:36:17;;;;;;;10.60;4.30;;;9.20;99.90;;;;;;5100156;28;20012;-87
2020/12/20 04:38:42;;;;;;;11.43;4.82;;;9.20;99.90;;;;;;5100363;28;20084;-86
2020/12/20 04:41:09;;;;;;;13.43;4.05;;;9.20;99.90;;;;;;5133842;27;20016;-88
2020/12/20 04:43:35;;;;;;;10.98;4.10;;;9.20;99.90;;;;;;5081172;28;20398;-88
2020/12/20 04:46:03;;;;;;;11.38;4.40;;;9.20;99.90;;;;;;5081611;28;20024;-88
2020/12/20 04:48:35;;;;;;;9.88;5.10;;;9.20;99.90;;;;;;5112632;28;20032;-89
2020/12/20 04:51:02;;;;;;;11.20;4.03;;;9.30;99.90;;;;;;5076218;28;20021;-88
2020/12/20 04:53:30;;;;;;;8.45;4.20;;;9.20;99.90;;;;;;5074743;28;20495;-86
2020/12/20 04:56:10;;;;;;;11.05;4.32;;;9.30;99.90;;;;;;5074632;28;20052;-89
2020/12/20 04:58:37;;;;;;;11.68;4.22;;;9.20;99.90;;;;;;5074653;28;20058;-86
2020/12/20 05:01:04;;;;;;;8.57;3.80;;;9.20;99.90;;;;;;5074586;28;20119;-89
2020/12/20 05:03:29;;;;;;;11.52;4.50;;;9.20;99.90;;;;;;5074915;28;20412;-89
2020/12/20 05:05:55;;;;;;;12.95;5.03;;;9.20;99.90;;;;;;5075468;28;20115;-87
2020/12/20 05:08:22;;;;;;;9.85;4.78;;;9.20;99.90;;;;;;5074220;28;20029;-88
2020/12/20 05:10:52;;;;;;;12.63;4.80;;;9.30;99.90;;;;;;5074372;28;20486;-88
2020/12/20 05:13:18;;;;;;;9.20;4.15;;;9.20;99.90;;;;;;5073900;28;20052;-88
2020/12/20 05:15:44;;;;;;;12.00;4.25;;;9.20;99.90;;;;;;5107915;28;20025;-87
2020/12/20 05:18:13;;;;;;;7.82;3.53;;;9.20;99.90;;;;;;5074087;28;20398;-90
2020/12/20 05:20:40;;;;;;;7.60;3.88;;;9.20;99.90;;;;;;5075015;28;20112;-90
2020/12/20 05:23:07;;;;;;;7.85;3.42;;;9.20;99.90;;;;;;5108004;28;20052;-87
2020/12/20 05:25:34;;;;;;;14.88;4.30;;;9.10;99.90;;;;;;5074777;28;20378;-88
2020/12/20 05:28:22;;;;;;;8.90;4.28;;;9.10;99.90;;;;;;5073749;28;20024;-88
2020/12/20 05:30:48;;;;;;;9.07;3.50;;;9.20;99.90;;;;;;5075014;28;20025;-90
2020/12/20 05:33:25;;;;;;;8.60;3.95;;;9.10;99.90;;;;;;5073788;28;20037;-89
2020/12/20 05:36:07;;;;;;;10.18;3.85;;;9.10;99.90;;;;;;5074867;28;20063;-89
2020/12/20 05:38:35;;;;;;;10.18;4.20;;;9.20;99.90;;;;;;5073713;28;20051;-89
2020/12/20 05:41:01;;;;;;;10.88;3.78;;;9.10;99.90;;;;;;5074898;28;20067;-87
2020/12/20 05:43:28;;;;;;;10.77;4.05;;;9.20;99.90;;;;;;5074736;28;20044;-87
2020/12/20 05:45:55;;;;;;;6.57;3.70;;;9.20;99.90;;;;;;5107338;28;20031;-88
2020/12/20 05:48:23;;;;;;;10.40;4.10;;;9.20;99.90;;;;;;5073655;28;20023;-88
2020/12/20 05:51:06;;;;;;;12.30;3.67;;;9.20;99.90;;;;;;5073574;28;20037;-88
2020/12/20 05:53:33;;;;;;;13.15;3.95;;;9.20;99.90;;;;;;5073284;28;20103;-89
2020/12/20 05:56:00;;;;;;;12.43;4.18;;;9.20;99.90;;;;;;5074535;28;20031;-89
2020/12/20 05:58:34;;;;;;;9.38;3.55;;;9.20;99.90;;;;;;5072988;28;20209;-90
2020/12/20 06:01:00;;;;;;;7.63;3.50;;;9.10;99.90;;;;;;5073357;28;20021;-90
2020/12/20 06:03:27;;;;;;;7.50;3.60;;;9.20;99.90;;;;;;5074158;28;20031;-90
2020/12/20 06:05:52;;;;;;;9.43;3.40;;;9.20;99.90;;;;;;5075103;28;20132;-91
2020/12/20 06:08:23;;;;;;;8.90;3.60;;;9.20;99.90;;;;;;5073816;28;20060;-92
2020/12/20 06:10:51;;;;;;;8.77;3.58;;;9.10;99.90;;;;;;5076272;28;20032;-91
2020/12/20 06:13:23;;;;;;;7.65;3.50;;;9.20;99.90;;;;;;5073483;28;20044;-90
2020/12/20 06:15:54;;;;;;;9.90;3.53;;;9.10;99.90;;;;;;5107747;28;20059;-90
2020/12/20 06:18:27;;;;;;;12.50;4.10;;;9.10;99.90;;;;;;5075090;28;20478;-90
2020/12/20 06:20:57;;;;;;;11.73;4.20;;;9.10;99.90;;;;;;5074519;28;20058;-89
2020/12/20 06:23:27;;;;;;;8.18;3.60;;;9.10;99.90;;;;;;5075832;28;20489;-90
2020/12/20 06:25:57;;;;;;;10.52;3.80;;;9.10;99.90;;;;;;5073638;28;20398;-90
2020/12/20 06:28:27;;;;;;;10.70;3.80;;;9.10;99.90;;;;;;5074096;28;20063;-89
2020/12/20 06:30:54;;;;;;;9.20;3.80;;;9.10;99.90;;;;;;5106420;28;20185;-91
2020/12/20 06:33:37;;;;;;;12.57;4.20;;;9.10;99.90;;;;;;5073971;28;20489;-91
2020/12/20 06:36:13;;;;;;;19.67;4.35;;;9.10;99.90;;;;;;5072497;28;20024;-91
2020/12/20 06:38:38;;;;;;;12.35;4.05;;;9.10;99.90;;;;;;5072791;28;20033;-89
2020/12/20 06:41:04;;;;;;;9.60;3.90;;;9.10;99.90;;;;;;5073466;28;20083;-89
2020/12/20 06:43:32;;;;;;;9.55;4.05;;;9.10;99.90;;;;;;5073232;28;20017;-90
2020/12/20 06:45:59;;;;;;;11.15;4.20;;;9.10;99.90;;;;;;5073178;28;20036;-90
2020/12/20 06:48:36;;;;;;;8.07;3.63;;;9.10;99.90;;;;;;5073095;28;20104;-89
2020/12/20 06:51:03;;;;;;;10.00;3.65;;;9.10;99.90;;;;;;5072972;28;20031;-91
2020/12/20 06:53:49;;;;;;;9.23;3.35;;;9.00;99.90;;;;;;5073315;28;20032;-89
2020/12/20 06:56:16;;;;;;;13.13;4.40;;;9.10;99.90;;;;;;5072731;28;20089;-90
2020/12/20 06:58:41;;;;;;;7.72;3.65;;;9.10;99.90;;;;;;5072925;28;20379;-91
2020/12/20 07:01:07;;;;;;;17.58;4.60;;;9.10;99.90;;;;;;5072868;28;20033;-91
2020/12/20 07:03:38;;;;;;;10.68;3.75;;;9.10;99.90;;;;;;5072759;28;20038;-90
2020/12/20 07:06:06;;;;;;;9.10;3.90;;;9.00;99.90;;;;;;5073434;28;20023;-90
2020/12/20 07:08:33;;;;;;;10.43;3.85;;;9.00;99.90;;;;;;5073351;28;20486;-89
2020/12/20 07:11:01;;;;;;;12.18;3.72;;;9.10;99.90;;;;;;5072571;28;20727;-91
2020/12/20 07:13:33;;;;;;;12.70;3.92;;;9.00;99.90;;;;;;5075022;28;20049;-88
2020/12/20 07:16:19;;;;;;;9.05;3.33;;;9.00;99.90;;;;;;5076770;28;20070;-91
2020/12/20 07:18:58;;;;;;;9.20;3.53;;;9.00;99.90;;;;;;5076448;28;20040;-91
2020/12/20 07:21:24;;;;;;;15.90;3.72;;;9.00;99.90;;;;;;5077971;28;20078;-90
2020/12/20 07:24:11;;;;;;;10.07;3.75;;;9.00;99.90;;;;;;5077468;28;20033;-89
2020/12/20 07:26:37;;;;;;;9.07;3.60;;;8.90;99.90;;;;;;5076887;28;20028;-90
2020/12/20 07:29:04;;;;;;;8.05;3.38;;;9.00;99.90;;;;;;5076661;28;20380;-90
2020/12/20 07:31:30;;;;;;;11.00;4.18;;;8.90;99.90;;;;;;5077131;28;20025;-89
2020/12/20 07:33:57;;;;;;;8.82;3.35;;;8.90;99.90;;;;;;5077819;28;20030;-90
2020/12/20 07:36:24;;;;;;;10.75;3.78;;;8.90;99.90;;;;;;5076614;28;20389;-88
2020/12/20 07:38:50;;;;;;;12.15;4.00;;;8.90;99.90;;;;;;5076341;28;20033;-89
2020/12/20 07:41:16;;;;;;;12.13;3.83;;;9.00;99.90;;;;;;5076216;28;20016;-89
2020/12/20 07:43:43;;;;;;;12.10;3.80;;;9.00;99.90;;;;;;5110301;28;20016;-88
2020/12/20 07:46:11;;;;;;;12.07;4.18;;;9.00;99.90;;;;;;5077817;28;20027;-89
2020/12/20 07:48:38;;;;;;;12.13;4.15;;;9.00;99.90;;;;;;5110339;28;20025;-88
2020/12/20 07:51:24;;;;;;;9.27;3.78;;;8.90;99.90;;;;;;5077675;28;20355;-88
2020/12/20 07:53:57;;;;;;;12.73;3.72;;;8.90;99.90;;;;;;5077637;28;20143;-89
2020/12/20 07:56:30;;;;;;;;;;;8.90;99.90;;;;;;5076706;28;20112;-89
2020/12/20 07:59:02;;;;;;;8.50;3.55;;;8.90;99.90;;;;;;5077116;28;19944;-89
2020/12/20 08:01:28;;;;;;;10.63;4.35;;;8.90;99.90;;;;;;5076159;28;20492;-90
2020/12/20 08:04:11;;;;;;;9.40;4.30;;;8.90;99.90;;;;;;5076187;28;20062;-90
2020/12/20 08:06:48;;;;;;;12.60;3.88;;;8.90;99.90;;;;;;5077133;28;20028;-89
2020/12/20 08:09:16;;;;;;;12.73;3.88;;;8.90;99.90;;;;;;5076561;28;20410;-89
2020/12/20 08:11:43;;;;;;;11.18;4.53;;;8.90;99.90;;;;;;5077310;28;20025;-90
2020/12/20 08:14:11;;;;;;;14.52;4.13;;;8.90;99.90;;;;;;5076961;28;20044;-88
2020/12/20 08:16:38;;;;;;;13.27;4.15;;;8.90;99.90;;;;;;5075734;28;20393;-89
2020/12/20 08:19:09;;;;;;;10.63;3.70;;;8.90;99.90;;;;;;5076228;28;20032;-90
2020/12/20 08:21:49;;;;;;;12.65;4.30;;;8.90;99.90;;;;;;5075511;28;20108;-89
2020/12/20 08:24:15;;;;;;;12.05;4.57;;;8.90;99.90;;;;;;5076894;28;20086;-89
2020/12/20 08:26:42;;;;;;;9.90;3.97;;;8.90;99.90;;;;;;5074740;28;20017;-89
2020/12/20 08:29:10;;;;;;;10.98;3.92;;;8.90;99.90;;;;;;5075131;28;20115;-86
2020/12/20 08:31:36;;;;;;;14.35;4.45;;;8.90;99.90;;;;;;5072318;28;20016;-88
2020/12/20 08:34:19;;;;;;;15.07;4.25;;;9.00;99.90;;;;;;5073900;28;20070;-88
2020/12/20 08:36:53;;;;;;;14.23;4.15;;;9.00;99.90;;;;;;5071948;28;20020;-89
2020/12/20 08:39:25;;;;;;;15.05;3.83;;;9.00;99.90;;;;;;5072258;28;20028;-87
2020/12/20 08:42:06;;;;;;;17.83;5.35;;;9.00;99.90;;;;;;5073787;28;20364;-89
2020/12/20 08:44:32;;;;;;;10.65;4.20;;;9.00;99.90;;;;;;5068047;28;20016;-89
2020/12/20 08:47:10;;;;;;;13.57;4.03;;;9.00;99.90;;;;;;5072289;28;20101;-88
2020/12/20 08:49:36;;;;;;;12.38;4.30;;;9.10;99.90;;;;;;5073349;28;20032;-90
2020/12/20 08:52:13;;;;;;;12.07;4.32;;;9.10;99.90;;;;;;5072118;28;20025;-88
2020/12/20 08:54:39;;;;;;;12.35;3.88;;;9.10;99.90;;;;;;5071802;28;20487;-89
2020/12/20 08:57:12;;;;;;;14.50;3.85;;;9.10;99.90;;;;;;5073249;28;20074;-89
2020/12/20 08:59:43;;;;;;;14.85;4.55;;;9.20;99.90;;;;;;5073475;28;20102;-88
2020/12/20 09:02:17;;;;;;;13.23;3.95;;;9.20;99.90;;;;;;5073119;28;20029;-89
2020/12/20 09:05:09;;;;;;;12.40;4.00;;;9.20;99.90;;;;;;5072629;28;20060;-92
2020/12/20 09:07:36;;;;;;;13.55;4.30;;;9.20;99.90;;;;;;5073266;28;20052;-90
2020/12/20 09:10:06;;;;;;;12.52;3.85;;;9.20;99.90;;;;;;5074996;28;20066;-91
2020/12/20 09:12:32;;;;;;;9.30;3.30;;;9.30;99.90;;;;;;5073861;28;20059;-90
2020/12/20 09:14:59;;;;;;;13.10;4.10;;;9.30;99.90;;;;;;5074123;28;20028;-90
2020/12/20 09:17:42;;;;;;;9.68;3.35;;;9.30;99.90;;;;;;5074963;28;20025;-87
2020/12/20 09:20:16;;;;;;;10.73;3.53;;;9.40;99.90;;;;;;5075852;28;20054;-86
2020/12/20 09:22:47;;;;;;;14.55;3.58;;;9.40;99.90;;;;;;5095759;28;20035;-86
2020/12/20 09:25:15;;;;;;;15.57;3.85;;;9.30;99.90;;;;;;5095410;28;20009;-86
2020/12/20 09:27:54;;;;;;;13.95;4.10;;;9.40;99.90;;;;;;5120868;28;20398;-88
2020/12/20 09:30:38;;;;;;;8.73;3.60;;;9.40;99.90;;;;;;5076160;28;20079;-88
2020/12/20 09:33:29;;;;;;;9.07;3.45;;;9.50;99.90;;;;;;5077658;28;20013;-88
2020/12/20 09:35:59;;;;;;;15.38;4.07;;;9.50;99.90;;;;;;5073198;28;20155;-89
2020/12/20 09:38:36;;;;;;;9.35;3.92;;;9.50;99.90;;;;;;5071862;28;20040;-89
2020/12/20 09:41:13;;;;;;;12.07;4.07;;;9.50;99.90;;;;;;5072459;28;20036;-89
2020/12/20 09:43:43;;;;;;;11.88;3.38;;;9.60;99.90;;;;;;5072842;28;20478;-89
2020/12/20 09:46:09;;;;;;;10.52;2.90;;;9.60;99.90;;;;;;5072471;28;20119;-87
2020/12/20 09:48:35;;;;;;;14.40;3.80;;;9.60;99.90;;;;;;5072617;28;20032;-86
2020/12/20 09:51:01;;;;;;;13.73;4.15;;;9.70;99.90;;;;;;5073009;28;20028;-87
2020/12/20 09:53:27;;;;;;;12.43;3.90;;;9.60;99.90;;;;;;5072113;28;20035;-90
2020/12/20 09:55:52;;;;;;;13.13;4.18;;;9.70;99.90;;;;;;5073005;28;20016;-89
2020/12/20 09:58:19;;;;;;;18.08;4.00;;;9.70;99.90;;;;;;5071932;28;20087;-89
2020/12/20 10:00:45;;;;;;;17.00;4.22;;;9.70;99.90;;;;;;5071564;28;20021;-90
2020/12/20 10:03:11;;;;;;;9.15;3.47;;;9.70;99.90;;;;;;5072857;28;20512;-87
2020/12/20 10:05:42;;;;;;;13.18;3.75;;;9.70;99.90;;;;;;5069706;28;20052;-89
2020/12/20 10:08:09;;;;;;;13.18;4.03;;;9.80;99.90;;;;;;5069741;28;20044;-88
2020/12/20 10:10:35;;;;;;;18.15;4.75;;;9.80;99.90;;;;;;5067239;28;20052;-87
2020/12/20 10:13:00;;;;;;;12.75;3.42;;;9.80;99.90;;;;;;5071666;28;20082;-89
2020/12/20 10:15:26;;;;;;;11.98;3.95;;;9.80;99.90;;;;;;5071480;28;20751;-91
2020/12/20 10:17:53;;;;;;;10.73;3.47;;;9.80;99.90;;;;;;5072738;28;20028;-89
2020/12/20 10:20:18;;;;;;;12.43;3.90;;;9.90;99.90;;;;;;5072181;28;20067;-89
2020/12/20 10:22:44;;;;;;;11.30;3.70;;;9.90;99.90;;;;;;5072360;28;20036;-88
2020/12/20 10:25:10;;;;;;;8.95;3.88;;;9.90;99.90;;;;;;5074433;28;20044;-90
2020/12/20 10:27:36;;;;;;;12.32;3.83;;;9.90;99.90;;;;;;5071211;28;20024;-88
2020/12/20 10:30:01;;;;;;;12.25;4.25;;;9.90;99.90;;;;;;5071921;28;20074;-91
2020/12/20 10:32:27;;;;;;;17.33;3.75;;;9.90;99.90;;;;;;5072361;28;20013;-88
2020/12/20 10:34:52;;;;;;;13.95;3.40;;;10.00;99.90;;;;;;5071504;28;20029;-87
2020/12/20 10:37:18;;;;;;;14.68;3.60;;;10.00;99.90;;;;;;5072701;28;20028;-90
2020/12/20 10:39:44;;;;;;;15.35;3.85;;;10.00;99.90;;;;;;5074666;28;20467;-91
2020/12/20 10:42:14;;;;;;;9.35;3.15;;;10.00;99.90;;;;;;5075896;28;20020;-91
2020/12/20 10:44:41;;;;;;;7.38;3.22;;;10.10;99.90;;;;;;5075563;28;20033;-91
2020/12/20 10:47:06;;;;;;;14.45;3.55;;;10.10;99.90;;;;;;5074011;28;20079;-90
2020/12/20 10:49:33;;;;;;;14.48;3.90;;;10.10;99.90;;;;;;5072915;28;20029;-91
2020/12/20 10:51:58;;;;;;;13.95;3.38;;;10.20;99.90;;;;;;5072882;28;20027;-90
2020/12/20 10:54:29;;;;;;;12.02;3.70;;;10.30;99.90;;;;;;5072603;28;20040;-89
2020/12/20 10:56:58;;;;;;;16.45;4.18;;;10.40;99.90;;;;;;5074327;28;20020;-90
2020/12/20 10:59:23;;;;;;;15.65;3.90;;;10.50;99.90;;;;;;5072494;28;20104;-90
2020/12/20 11:01:50;;;;;;;8.85;3.45;;;10.60;99.90;;;;;;5075050;28;20052;-88
2020/12/20 11:04:15;;;;;;;14.73;3.63;;;10.80;99.90;;;;;;5076801;28;20078;-88
2020/12/20 11:06:41;;;;;;;12.77;3.70;;;10.80;99.90;;;;;;5076654;28;20021;-89
2020/12/20 11:09:06;;;;;;;13.65;3.78;;;10.90;99.90;;;;;;5081222;28;20044;-88
2020/12/20 11:11:32;;;;;;;12.55;3.10;;;11.00;99.90;;;;;;5097321;28;20068;-90
2020/12/20 11:14:00;;;;;;;12.15;3.88;;;11.10;99.90;;;;;;5081332;28;20059;-88
2020/12/20 11:16:26;;;;;;;13.18;3.58;;;11.20;99.90;;;;;;5077433;28;20043;-89
2020/12/20 11:18:51;;;;;;;9.98;4.13;;;11.30;99.90;;;;;;5070056;28;20029;-90
2020/12/20 11:21:17;;;;;;;13.23;3.92;;;11.60;99.90;;;;;;5073063;28;20031;-90
2020/12/20 11:23:45;;;;;;;13.57;3.63;;;11.80;99.90;;;;;;5074939;28;20063;-92
2020/12/20 11:26:19;;;;;;;9.98;3.22;;;11.70;99.90;;;;;;5074859;28;20464;-91
2020/12/20 11:28:47;;;;;;;12.10;3.75;;;11.60;99.90;;;;;;5077778;28;20090;-87
2020/12/20 11:31:15;;;;;;;14.35;3.95;;;11.40;99.90;;;;;;5077977;28;20036;-91
2020/12/20 11:33:41;;;;;;;11.25;3.80;;;11.40;99.90;;;;;;5079294;28;20055;-90
2020/12/20 11:36:09;;;;;;;10.88;3.63;;;11.40;99.90;;;;;;5083269;28;20032;-90
2020/12/20 11:38:35;;;;;;;13.88;4.88;;;11.70;99.90;;;;;;5074259;28;20418;-92
2020/12/20 11:41:04;;;;;;;16.42;5.28;;;11.70;99.90;;;;;;5076046;28;20481;-87
2020/12/20 11:43:31;;;;;;;12.73;4.38;;;11.70;99.90;;;;;;5078128;28;20017;-91
2020/12/20 11:45:58;;;;;;;11.57;4.72;;;11.70;99.90;;;;;;5073795;28;20553;-90
2020/12/20 11:48:24;;;;;;;13.15;4.65;;;11.70;99.90;;;;;;5074305;28;20062;-90
2020/12/20 11:50:50;;;;;;;15.75;5.25;;;11.70;99.90;;;;;;5095351;28;20032;-86
2020/12/20 11:53:20;;;;;;;14.07;5.10;;;11.70;99.90;;;;;;5077392;28;20017;-91
2020/12/20 11:55:46;;;;;;;16.92;4.70;;;11.70;99.90;;;;;;5074345;28;20036;-89
2020/12/20 11:58:13;;;;;;;15.23;4.75;;;11.70;99.90;;;;;;5076823;28;20478;-92
2020/12/20 12:00:44;;;;;;;14.60;5.07;;;11.70;99.90;;;;;;5079365;28;20790;-91
2020/12/20 12:03:10;;;;;;;14.60;5.43;;;11.60;99.90;;;;;;5112496;28;20165;-92
2020/12/20 12:05:37;;;;;;;19.38;6.05;;;11.60;99.90;;;;;;5082962;28;20421;-91
2020/12/20 12:08:04;;;;;;;16.92;5.32;;;11.70;99.90;;;;;;5078301;28;20024;-91
2020/12/20 12:10:29;;;;;;;15.65;4.90;;;11.80;99.90;;;;;;5078409;28;20024;-91
2020/12/20 12:12:55;;;;;;;13.82;5.00;;;11.90;99.90;;;;;;5076787;28;20104;-86
2020/12/20 12:15:21;;;;;;;16.08;5.30;;;11.80;99.90;;;;;;5112950;28;20047;-91
2020/12/20 12:20:13;;;;;;;11.57;4.47;;;11.70;99.90;;;;;;5227777;22;20051;-90
2020/12/20 12:22:56;;;;;;;13.88;4.63;;;11.80;99.90;;;;;;5141310;22;20052;-86
2020/12/20 12:25:22;;;;;;;13.23;4.95;;;11.80;99.90;;;;;;5126814;28;20038;-87
2020/12/20 12:27:47;;;;;;;15.55;4.90;;;11.70;99.90;;;;;;5124887;28;20027;-90
2020/12/20 12:30:13;;;;;;;16.17;5.30;;;11.70;99.90;;;;;;5117506;28;20048;-88
2020/12/20 12:32:42;;;;;;;14.38;4.68;;;11.70;99.90;;;;;;5115384;28;20020;-90
2020/12/20 12:35:08;;;;;;;18.83;4.93;;;11.60;99.90;;;;;;5110728;28;20081;-89
2020/12/20 12:37:34;;;;;;;14.52;4.95;;;11.50;99.90;;;;;;5110358;28;20016;-90
2020/12/20 12:40:00;;;;;;;16.67;4.85;;;11.50;99.90;;;;;;5117145;28;20112;-91
2020/12/20 12:42:26;;;;;;;15.95;4.25;;;11.50;99.90;;;;;;5116476;28;20053;-90
2020/12/20 12:44:52;;;;;;;16.88;5.72;;;11.40;99.90;;;;;;5113184;28;20019;-89
2020/12/20 12:47:17;;;;;;;17.15;5.10;;;11.40;99.90;;;;;;5101544;28;20035;-88
2020/12/20 12:49:43;;;;;;;15.02;4.90;;;11.40;99.90;;;;;;5100959;28;20111;-87
2020/12/20 12:52:09;;;;;;;12.82;4.07;;;11.40;99.90;;;;;;5100819;28;20019;-87
2020/12/20 12:54:35;;;;;;;14.27;4.30;;;11.50;99.90;;;;;;5112979;28;20020;-89